Dal Kalahari — A8FQ8 — position and weather

sailwx.info

Track history (hours):
 
Tides and Currents Weather Stations Pressure Air Temp Water Temp Dewpoint Dewpoint Depression Visibility Wind Speed Wind Dir Waves Ship Positions

Dal Kalahari

Last reported at 2014-Jul-23 11:32 UTC. Time now 2014-Jul-23 20:12 UTC.
Position N 34°08' E 134°57'.

Length 266 m; beam 37 m; draft 12.5 m.

Type: Ship (hazmat cat C). MMSI: 636090797.

Date/timePositionNaut miles runAvg speedWind from/ knotsBaromVisibWave heightAir tempDewpointWater temp
2014-Jul-23 11:32N 34°08' E 134°57'1313.0
2014-Jul-23 10:33N 34°21' E 134°59'1919.5
2014-Jul-23 09:33N 34°34' E 135°17'9 7.6
2014-Jul-23 08:25N 34°39' E 135°26'0 0.0
2014-Jul-23 07:25N 34°39' E 135°26'0 0.0
2014-Jul-23 06:31N 34°39' E 135°26'0 0.0
2014-Jul-23 05:31N 34°39' E 135°26'0 0.0
2014-Jul-23 04:07N 34°39' E 135°26'0 0.0
2014-Jul-23 03:31N 34°39' E 135°26'0 0.0
2014-Jul-23 01:07N 34°39' E 135°26'0 0.0
2014-Jul-23 00:31N 34°39' E 135°26'0 0.1
2014-Jul-22 23:31N 34°39' E 135°26'6 6.3
2014-Jul-22 22:33N 34°35' E 135°19'1212.1
2014-Jul-22 21:33N 34°27' E 135°09'1313.1
2014-Jul-22 20:33N 34°17' E 134°59'1212.0
2014-Jul-22 19:33N 34°05' E 134°59'9 9.4
2014-Jul-22 18:33N 33°55' E 134°58'233 8.8
2014-Jul-21 16:11N 34°58' E 139°30'6 9.6
2014-Jul-21 15:31N 35°02' E 139°36'10 9.9
2014-Jul-21 14:33N 35°08' E 139°44'1010.3
2014-Jul-21 13:33N 35°18' E 139°44'6 6.0
2014-Jul-21 12:32N 35°24' E 139°41'0 0.0
2014-Jul-21 11:32N 35°24' E 139°41'0 0.0
2014-Jul-21 10:29N 35°24' E 139°41'0 0.0
2014-Jul-21 09:32N 35°24' E 139°41'0 0.0
2014-Jul-21 08:32N 35°24' E 139°41'0 0.0
2014-Jul-21 07:32N 35°24' E 139°41'0 0.1
2014-Jul-21 06:32N 35°24' E 139°41'7 7.1
2014-Jul-21 05:33N 35°18' E 139°45'1111.2
2014-Jul-21 04:33N 35°07' E 139°46'1414.1
2014-Jul-21 03:33N 34°53' E 139°42'1313.3
2014-Jul-21 02:33N 34°40' E 139°45'47514.6
2014-Jul-19 18:00N 27°12' E 142°48'9015.0 140 / 111012.310.8 1.028.023.930.0
2014-Jul-19 12:00N 25°48' E 143°24'35414.7 120 / 141013.510.8 0.528.123.930.2
2014-Jul-18 12:00N 20°18' E 145°42'   090 / 131011.810.8 0.529.326.030.5
2014-Jul-15 12:00N 03°00' E 151°54'   180 / 141010.110.8 0.527.522.629.6
Track history (hours):
 
Tides and Currents Weather Stations Pressure Air Temp Water Temp Dewpoint Dewpoint Depression Visibility Wind Speed Wind Dir Waves Ship Positions

Dal Kalahari

Last reported at 2014-Jul-23 11:32 UTC. Time now 2014-Jul-23 20:12 UTC.
Position N 34°08' E 134°57'.

Length 266 m; beam 37 m; draft 12.5 m.

Type: Ship (hazmat cat C). MMSI: 636090797.

Date/timePositionNaut miles runAvg speedWind from/ knotsBaromVisibWave heightAir tempDewpointWater temp
2014-Jul-23 11:32N 34°08' E 134°57'1313.0
2014-Jul-23 10:33N 34°21' E 134°59'1919.5
2014-Jul-23 09:33N 34°34' E 135°17'9 7.6
2014-Jul-23 08:25N 34°39' E 135°26'0 0.0
2014-Jul-23 07:25N 34°39' E 135°26'0 0.0
2014-Jul-23 06:31N 34°39' E 135°26'0 0.0
2014-Jul-23 05:31N 34°39' E 135°26'0 0.0
2014-Jul-23 04:07N 34°39' E 135°26'0 0.0
2014-Jul-23 03:31N 34°39' E 135°26'0 0.0
2014-Jul-23 01:07N 34°39' E 135°26'0 0.0
2014-Jul-23 00:31N 34°39' E 135°26'0 0.1
2014-Jul-22 23:31N 34°39' E 135°26'6 6.3
2014-Jul-22 22:33N 34°35' E 135°19'1212.1
2014-Jul-22 21:33N 34°27' E 135°09'1313.1
2014-Jul-22 20:33N 34°17' E 134°59'1212.0
2014-Jul-22 19:33N 34°05' E 134°59'9 9.4
2014-Jul-22 18:33N 33°55' E 134°58'233 8.8
2014-Jul-21 16:11N 34°58' E 139°30'6 9.6
2014-Jul-21 15:31N 35°02' E 139°36'10 9.9
2014-Jul-21 14:33N 35°08' E 139°44'1010.3
2014-Jul-21 13:33N 35°18' E 139°44'6 6.0
2014-Jul-21 12:32N 35°24' E 139°41'0 0.0
2014-Jul-21 11:32N 35°24' E 139°41'0 0.0
2014-Jul-21 10:29N 35°24' E 139°41'0 0.0
2014-Jul-21 09:32N 35°24' E 139°41'0 0.0
2014-Jul-21 08:32N 35°24' E 139°41'0 0.0
2014-Jul-21 07:32N 35°24' E 139°41'0 0.1
2014-Jul-21 06:32N 35°24' E 139°41'7 7.1
2014-Jul-21 05:33N 35°18' E 139°45'1111.2
2014-Jul-21 04:33N 35°07' E 139°46'1414.1
2014-Jul-21 03:33N 34°53' E 139°42'1313.3
2014-Jul-21 02:33N 34°40' E 139°45'47514.6
2014-Jul-19 18:00N 27°12' E 142°48'9015.0 140 / 111012.310.8 1.028.023.930.0
2014-Jul-19 12:00N 25°48' E 143°24'35414.7 120 / 141013.510.8 0.528.123.930.2
2014-Jul-18 12:00N 20°18' E 145°42'   090 / 131011.810.8 0.529.326.030.5
2014-Jul-15 12:00N 03°00' E 151°54'   180 / 141010.110.8 0.527.522.629.6

Dump ship's entire track history